CDG2121 ZSAM-ZBAA
Flight info
| Callsign | CDG2121 |
|---|---|
| Flight time | N/A |
| Altitude | 32100 |
| Route | ZSAM DOVP7Y DOVPU W643 FOC W644 AKAVO A470 EMRID W135 DOGVI A470 DPX A593 DALIM W157 AVBOX AVBO7X ZBAA |
| Aircraft | B738/M-SDE2E3FGHIRWXY/LB1 |
Departure
| Time | 2026-04-30 03:24 |
|---|---|
| Airport | Xiamen Gaoqi International Airport (ZSAM) |
Arrival
| Time | N/A |
|---|---|
| Airport | Beijing Capital International Airport (ZBAA) |
| Time | Latitude | Longitude | Altitude | Speed | Heading |
|---|---|---|---|---|---|
| 2026-04-30 03:03 | 24.54892 | 118.14043 | 69 ft | 0 kts | 232° |
| 2026-04-30 03:13 | 24.54899 | 118.14053 | 69 ft | 2 kts | 245° |
| 2026-04-30 03:14 | 24.54904 | 118.14069 | 69 ft | 2 kts | 261° |
| 2026-04-30 03:14 | 24.54905 | 118.14085 | 69 ft | 2 kts | 277° |
| 2026-04-30 03:14 | 24.54901 | 118.14101 | 69 ft | 2 kts | 292° |
| 2026-04-30 03:14 | 24.54894 | 118.14116 | 69 ft | 2 kts | 309° |
| 2026-04-30 03:15 | 24.54887 | 118.14123 | 69 ft | 0 kts | 319° |
| 2026-04-30 03:15 | 24.54883 | 118.14127 | 69 ft | 1 kts | 322° |
| 2026-04-30 03:15 | 24.54882 | 118.14128 | 69 ft | 0 kts | 322° |
| 2026-04-30 03:18 | 24.54884 | 118.14127 | 69 ft | 0 kts | 322° |
| 2026-04-30 03:19 | 24.54895 | 118.14117 | 69 ft | 4 kts | 322° |
| 2026-04-30 03:19 | 24.54934 | 118.14083 | 69 ft | 8 kts | 322° |
| 2026-04-30 03:19 | 24.54990 | 118.14036 | 69 ft | 10 kts | 321° |
| 2026-04-30 03:19 | 24.55046 | 118.13995 | 69 ft | 9 kts | 341° |
| 2026-04-30 03:20 | 24.55103 | 118.14020 | 69 ft | 6 kts | 51° |
| 2026-04-30 03:20 | 24.55130 | 118.14058 | 69 ft | 5 kts | 50° |
| 2026-04-30 03:20 | 24.55164 | 118.14067 | 69 ft | 4 kts | 341° |
| 2026-04-30 03:20 | 24.55196 | 118.14041 | 69 ft | 0 kts | 321° |
| 2026-04-30 03:22 | 24.55198 | 118.14040 | 69 ft | 2 kts | 321° |
| 2026-04-30 03:22 | 24.55230 | 118.14011 | 69 ft | 9 kts | 320° |
| 2026-04-30 03:22 | 24.55252 | 118.13937 | 69 ft | 13 kts | 244° |
| 2026-04-30 03:23 | 24.55221 | 118.13893 | 69 ft | 0 kts | 231° |
| 2026-04-30 03:23 | 24.55215 | 118.13885 | 69 ft | 6 kts | 231° |
| 2026-04-30 03:23 | 24.55036 | 118.13634 | 70 ft | 77 kts | 232° |
| 2026-04-30 03:23 | 24.54567 | 118.12977 | 70 ft | 139 kts | 232° |
| 2026-04-30 03:24 | 24.53855 | 118.11984 | 103 ft | 186 kts | 232° |
| 2026-04-30 03:24 | 24.53056 | 118.10866 | 790 ft | 184 kts | 233° |
| 2026-04-30 03:24 | 24.52296 | 118.09759 | 1458 ft | 187 kts | 235° |
| 2026-04-30 03:24 | 24.51504 | 118.08579 | 1899 ft | 199 kts | 234° |
| 2026-04-30 03:25 | 24.50628 | 118.07345 | 2385 ft | 206 kts | 232° |
| 2026-04-30 03:25 | 24.49700 | 118.06108 | 2818 ft | 216 kts | 232° |
| 2026-04-30 03:25 | 24.48745 | 118.04825 | 3415 ft | 217 kts | 232° |
| 2026-04-30 03:25 | 24.47799 | 118.03545 | 3854 ft | 220 kts | 232° |
| 2026-04-30 03:26 | 24.46857 | 118.02257 | 3877 ft | 215 kts | 233° |
| 2026-04-30 03:26 | 24.45950 | 118.00936 | 3875 ft | 216 kts | 235° |
| 2026-04-30 03:26 | 24.45050 | 117.99624 | 3883 ft | 215 kts | 234° |
| 2026-04-30 03:26 | 24.43974 | 117.98453 | 3878 ft | 217 kts | 210° |
| 2026-04-30 03:27 | 24.42524 | 117.98001 | 3877 ft | 220 kts | 181° |
| 2026-04-30 03:27 | 24.41006 | 117.98218 | 3892 ft | 220 kts | 163° |
| 2026-04-30 03:27 | 24.39642 | 117.98958 | 3879 ft | 219 kts | 139° |
| 2026-04-30 03:27 | 24.38699 | 118.00254 | 3878 ft | 220 kts | 115° |
| 2026-04-30 03:28 | 24.38247 | 118.01867 | 3877 ft | 218 kts | 94° |
| 2026-04-30 03:28 | 24.38373 | 118.03491 | 3879 ft | 216 kts | 69° |
| 2026-04-30 03:28 | 24.39108 | 118.04909 | 3880 ft | 214 kts | 46° |
| 2026-04-30 03:28 | 24.40241 | 118.05965 | 3878 ft | 213 kts | 37° |
| 2026-04-30 03:29 | 24.41322 | 118.07095 | 3873 ft | 213 kts | 48° |
| 2026-04-30 03:29 | 24.42248 | 118.08355 | 3875 ft | 214 kts | 51° |
| 2026-04-30 03:29 | 24.43154 | 118.09666 | 3871 ft | 214 kts | 51° |
| 2026-04-30 03:29 | 24.44068 | 118.10966 | 3870 ft | 214 kts | 51° |
| 2026-04-30 03:30 | 24.45034 | 118.12321 | 3898 ft | 242 kts | 51° |
| 2026-04-30 03:30 | 24.46014 | 118.13693 | 4372 ft | 250 kts | 51° |
| 2026-04-30 03:30 | 24.46844 | 118.14859 | 4831 ft | 254 kts | 51° |
| 2026-04-30 03:30 | 24.47761 | 118.16155 | 5323 ft | 260 kts | 51° |
| 2026-04-30 03:31 | 24.48899 | 118.17764 | 5832 ft | 271 kts | 51° |
| 2026-04-30 03:31 | 24.50076 | 118.19428 | 6261 ft | 286 kts | 51° |
| 2026-04-30 03:31 | 24.51323 | 118.21191 | 6786 ft | 296 kts | 51° |
| 2026-04-30 03:31 | 24.52597 | 118.22993 | 7425 ft | 300 kts | 51° |
| 2026-04-30 03:32 | 24.53886 | 118.24815 | 8042 ft | 306 kts | 51° |
| 2026-04-30 03:32 | 24.55194 | 118.26666 | 8659 ft | 311 kts | 50° |
| 2026-04-30 03:32 | 24.56525 | 118.28549 | 9280 ft | 315 kts | 50° |
| 2026-04-30 03:32 | 24.57883 | 118.30471 | 9909 ft | 319 kts | 50° |
| 2026-04-30 03:33 | 24.59254 | 118.32412 | 10391 ft | 328 kts | 50° |
| 2026-04-30 03:33 | 24.60725 | 118.34434 | 10701 ft | 343 kts | 46° |
| 2026-04-30 03:33 | 24.62512 | 118.36215 | 11087 ft | 351 kts | 32° |
| 2026-04-30 03:33 | 24.64587 | 118.37623 | 11647 ft | 354 kts | 25° |
| 2026-04-30 03:34 | 24.66781 | 118.38893 | 12000 ft | 362 kts | 23° |
| 2026-04-30 03:34 | 24.69029 | 118.40137 | 12808 ft | 359 kts | 23° |
| 2026-04-30 03:34 | 24.71225 | 118.41370 | 13449 ft | 361 kts | 23° |
| 2026-04-30 03:34 | 24.73491 | 118.42676 | 14058 ft | 366 kts | 24° |
| 2026-04-30 03:35 | 24.75713 | 118.43988 | 14664 ft | 370 kts | 24° |
| 2026-04-30 03:35 | 24.78004 | 118.45366 | 15351 ft | 371 kts | 25° |
| 2026-04-30 03:35 | 24.80261 | 118.46740 | 15935 ft | 376 kts | 25° |
| 2026-04-30 03:35 | 24.82581 | 118.48155 | 16556 ft | 378 kts | 25° |
| 2026-04-30 03:36 | 24.84864 | 118.49591 | 17129 ft | 383 kts | 28° |
| 2026-04-30 03:36 | 24.87045 | 118.51286 | 17678 ft | 389 kts | 35° |
| 2026-04-30 03:36 | 24.89106 | 118.53268 | 18202 ft | 396 kts | 39° |
| 2026-04-30 03:36 | 24.91083 | 118.55430 | 18744 ft | 400 kts | 43° |
| 2026-04-30 03:37 | 24.92996 | 118.57661 | 19235 ft | 404 kts | 44° |
| 2026-04-30 03:37 | 24.94931 | 118.59969 | 19791 ft | 407 kts | 44° |
| 2026-04-30 03:37 | 24.96844 | 118.62255 | 20264 ft | 411 kts | 44° |
| 2026-04-30 03:37 | 24.98812 | 118.64598 | 20766 ft | 414 kts | 43° |
| 2026-04-30 03:38 | 25.00767 | 118.66916 | 21254 ft | 417 kts | 44° |
| 2026-04-30 03:38 | 25.02758 | 118.69270 | 21707 ft | 420 kts | 44° |
| 2026-04-30 03:38 | 25.04764 | 118.71635 | 22180 ft | 422 kts | 43° |
| 2026-04-30 03:38 | 25.06757 | 118.73981 | 22569 ft | 426 kts | 43° |
| 2026-04-30 03:39 | 25.08792 | 118.76375 | 23010 ft | 429 kts | 43° |
| 2026-04-30 03:39 | 25.10852 | 118.78797 | 23481 ft | 430 kts | 43° |
| 2026-04-30 03:39 | 25.12890 | 118.81195 | 23887 ft | 434 kts | 43° |
| 2026-04-30 03:39 | 25.14968 | 118.83640 | 24281 ft | 438 kts | 43° |
| 2026-04-30 03:40 | 25.17063 | 118.86108 | 24646 ft | 442 kts | 43° |
| 2026-04-30 03:40 | 25.19188 | 118.88610 | 25062 ft | 444 kts | 43° |
| 2026-04-30 03:40 | 25.21321 | 118.91124 | 25393 ft | 450 kts | 43° |
| 2026-04-30 03:40 | 25.23467 | 118.93654 | 25856 ft | 450 kts | 43° |
| 2026-04-30 03:41 | 25.25606 | 118.96179 | 26224 ft | 453 kts | 43° |
| 2026-04-30 03:41 | 25.27745 | 118.98698 | 26607 ft | 456 kts | 43° |
| 2026-04-30 03:41 | 25.29940 | 119.01264 | 26922 ft | 460 kts | 43° |
| 2026-04-30 03:41 | 25.32158 | 119.03844 | 27310 ft | 462 kts | 42° |
| 2026-04-30 03:42 | 25.34349 | 119.06387 | 27623 ft | 465 kts | 42° |
| 2026-04-30 03:42 | 25.36601 | 119.09000 | 28004 ft | 467 kts | 42° |
| 2026-04-30 03:42 | 25.38854 | 119.11620 | 28401 ft | 468 kts | 42° |
| 2026-04-30 03:42 | 25.41108 | 119.14243 | 28665 ft | 472 kts | 42° |
| 2026-04-30 03:43 | 25.43376 | 119.16885 | 29034 ft | 474 kts | 42° |
| 2026-04-30 03:43 | 25.45675 | 119.19565 | 29332 ft | 477 kts | 42° |
| 2026-04-30 03:43 | 25.47959 | 119.22230 | 29661 ft | 480 kts | 42° |
| 2026-04-30 03:43 | 25.50266 | 119.24923 | 29953 ft | 483 kts | 43° |
| 2026-04-30 03:44 | 25.52578 | 119.27625 | 30264 ft | 486 kts | 42° |
| 2026-04-30 03:44 | 25.54907 | 119.30349 | 30573 ft | 488 kts | 42° |
| 2026-04-30 03:44 | 25.57206 | 119.33054 | 31139 ft | 484 kts | 43° |
| 2026-04-30 03:44 | 25.59517 | 119.35788 | 31662 ft | 480 kts | 43° |
| 2026-04-30 03:45 | 25.61770 | 119.38455 | 32060 ft | 480 kts | 43° |
| 2026-04-30 03:45 | 25.64063 | 119.41172 | 32191 ft | 483 kts | 43° |
| 2026-04-30 03:45 | 25.68704 | 119.46668 | 32191 ft | 484 kts | 43° |
| 2026-04-30 03:46 | 25.73311 | 119.52129 | 32195 ft | 484 kts | 42° |
| 2026-04-30 03:46 | 25.78134 | 119.57278 | 32193 ft | 476 kts | 32° |
| 2026-04-30 03:47 | 25.83739 | 119.61187 | 32200 ft | 470 kts | 22° |
| 2026-04-30 03:47 | 25.89569 | 119.64459 | 32200 ft | 469 kts | 19° |
| 2026-04-30 03:48 | 25.95489 | 119.67656 | 32202 ft | 471 kts | 19° |
| 2026-04-30 03:48 | 26.01413 | 119.70875 | 32197 ft | 470 kts | 20° |
| 2026-04-30 03:49 | 26.07362 | 119.73751 | 32197 ft | 460 kts | 9° |
| 2026-04-30 03:49 | 26.10456 | 119.74432 | 32202 ft | 447 kts | 356° |
| 2026-04-30 03:49 | 26.13567 | 119.74542 | 32199 ft | 440 kts | 351° |
| 2026-04-30 03:50 | 26.19626 | 119.74229 | 32194 ft | 435 kts | 348° |
| 2026-04-30 03:50 | 26.25694 | 119.73749 | 32193 ft | 433 kts | 347° |
| 2026-04-30 03:51 | 26.31736 | 119.73287 | 32195 ft | 437 kts | 347° |
| 2026-04-30 03:51 | 26.37804 | 119.72868 | 32195 ft | 436 kts | 347° |
| 2026-04-30 03:52 | 26.43893 | 119.72473 | 32195 ft | 434 kts | 347° |
| 2026-04-30 03:52 | 26.49917 | 119.72176 | 32198 ft | 440 kts | 350° |
| 2026-04-30 03:53 | 26.56138 | 119.72279 | 32197 ft | 440 kts | 352° |
| 2026-04-30 03:53 | 26.62237 | 119.72502 | 32198 ft | 439 kts | 352° |
| 2026-04-30 03:54 | 26.68367 | 119.72694 | 32199 ft | 439 kts | 352° |
| 2026-04-30 03:54 | 26.74489 | 119.72852 | 32199 ft | 442 kts | 352° |
| 2026-04-30 03:55 | 26.80610 | 119.72997 | 32200 ft | 439 kts | 351° |
| 2026-04-30 03:55 | 26.86781 | 119.73131 | 32198 ft | 441 kts | 351° |
| 2026-04-30 03:56 | 26.92904 | 119.73266 | 32203 ft | 440 kts | 351° |
| 2026-04-30 03:56 | 26.98907 | 119.72954 | 32195 ft | 422 kts | 338° |
| 2026-04-30 03:57 | 27.01694 | 119.72042 | 32204 ft | 407 kts | 327° |
| 2026-04-30 03:57 | 27.04190 | 119.70682 | 32207 ft | 398 kts | 321° |
| 2026-04-30 03:57 | 27.08922 | 119.67519 | 32206 ft | 393 kts | 318° |
| 2026-04-30 03:58 | 27.13569 | 119.64243 | 32208 ft | 391 kts | 318° |
| 2026-04-30 03:58 | 27.18215 | 119.61007 | 32217 ft | 393 kts | 318° |
| 2026-04-30 03:59 | 27.22906 | 119.57821 | 32221 ft | 399 kts | 321° |
| 2026-04-30 03:59 | 27.28235 | 119.55694 | 32218 ft | 426 kts | 341° |
| 2026-04-30 04:00 | 27.34292 | 119.55339 | 32221 ft | 441 kts | 349° |
| 2026-04-30 04:00 | 27.40433 | 119.55413 | 32214 ft | 438 kts | 350° |
| 2026-04-30 04:01 | 27.46528 | 119.55530 | 32217 ft | 441 kts | 349° |
| 2026-04-30 04:01 | 27.52693 | 119.55613 | 32212 ft | 443 kts | 349° |
| 2026-04-30 04:02 | 27.58825 | 119.55684 | 32217 ft | 438 kts | 349° |
| 2026-04-30 04:02 | 27.64942 | 119.55732 | 32217 ft | 440 kts | 349° |
| 2026-04-30 04:03 | 27.71060 | 119.55769 | 32220 ft | 440 kts | 348° |
| 2026-04-30 04:03 | 27.77224 | 119.55798 | 32225 ft | 444 kts | 348° |
| 2026-04-30 04:04 | 27.83368 | 119.55839 | 32223 ft | 442 kts | 348° |
| 2026-04-30 04:04 | 27.89515 | 119.55877 | 32221 ft | 439 kts | 348° |
| 2026-04-30 04:05 | 27.95644 | 119.55920 | 32222 ft | 441 kts | 349° |
| 2026-04-30 04:05 | 28.01845 | 119.56012 | 32218 ft | 446 kts | 349° |
| 2026-04-30 04:06 | 28.08032 | 119.56115 | 32219 ft | 444 kts | 349° |
| 2026-04-30 04:06 | 28.14204 | 119.56295 | 32223 ft | 443 kts | 350° |
| 2026-04-30 04:07 | 28.20414 | 119.56638 | 32228 ft | 448 kts | 351° |
| 2026-04-30 04:08 | 28.29768 | 119.57208 | 32225 ft | 447 kts | 351° |
| 2026-04-30 04:08 | 28.35999 | 119.57575 | 32230 ft | 448 kts | 350° |
| 2026-04-30 04:09 | 28.42236 | 119.57928 | 32236 ft | 451 kts | 350° |
| 2026-04-30 04:09 | 28.48430 | 119.58288 | 32231 ft | 445 kts | 350° |
| 2026-04-30 04:10 | 28.54662 | 119.58668 | 32234 ft | 449 kts | 350° |
| 2026-04-30 04:10 | 28.60938 | 119.59056 | 32229 ft | 452 kts | 350° |
| 2026-04-30 04:11 | 28.67176 | 119.59450 | 32221 ft | 445 kts | 350° |
| 2026-04-30 04:11 | 28.73400 | 119.59837 | 32222 ft | 452 kts | 350° |
| 2026-04-30 04:12 | 28.79653 | 119.60226 | 32223 ft | 449 kts | 349° |
| 2026-04-30 04:12 | 28.85893 | 119.60617 | 32230 ft | 449 kts | 349° |
| 2026-04-30 04:13 | 28.92164 | 119.61000 | 32238 ft | 452 kts | 349° |
| 2026-04-30 04:13 | 28.98408 | 119.61395 | 32235 ft | 447 kts | 349° |
| 2026-04-30 04:14 | 29.04652 | 119.61781 | 32237 ft | 452 kts | 349° |
| 2026-04-30 04:14 | 29.10926 | 119.62168 | 32247 ft | 449 kts | 349° |
| 2026-04-30 04:15 | 29.17191 | 119.62550 | 32242 ft | 453 kts | 349° |
| 2026-04-30 04:15 | 29.23480 | 119.62936 | 32229 ft | 449 kts | 349° |
| 2026-04-30 04:16 | 29.29729 | 119.63316 | 32246 ft | 453 kts | 349° |
| 2026-04-30 04:16 | 29.35975 | 119.63698 | 32244 ft | 448 kts | 349° |
| 2026-04-30 04:17 | 29.42264 | 119.64081 | 32239 ft | 453 kts | 349° |
| 2026-04-30 04:17 | 29.48547 | 119.64463 | 32230 ft | 451 kts | 349° |
| 2026-04-30 04:18 | 29.54911 | 119.65518 | 32240 ft | 477 kts | 6° |
| 2026-04-30 04:18 | 29.58002 | 119.67063 | 32229 ft | 493 kts | 19° |
| 2026-04-30 04:18 | 29.60994 | 119.69090 | 32235 ft | 504 kts | 22° |
| 2026-04-30 04:19 | 29.66832 | 119.73595 | 32224 ft | 504 kts | 26° |
| 2026-04-30 04:19 | 29.70519 | 119.76569 | 32224 ft | 508 kts | 26° |